createdAt,value
2022-09-23T00:02:13.517Z,12.43
2022-09-23T00:05:15.668Z,11.73
2022-09-23T00:08:17.294Z,14.48
2022-09-23T00:11:24.977Z,13.40
2022-09-23T00:14:27.691Z,14.70
2022-09-23T00:17:30.843Z,14.80
2022-09-23T00:20:34.336Z,14.15
2022-09-23T00:23:36.644Z,14.75
2022-09-23T00:26:38.230Z,17.53
2022-09-23T00:29:39.964Z,14.20
2022-09-23T00:32:41.568Z,13.63
2022-09-23T00:35:43.195Z,15.27
2022-09-23T00:38:45.307Z,14.48
2022-09-23T00:41:47.004Z,15.05
2022-09-23T00:44:56.820Z,14.70
2022-09-23T00:48:02.656Z,14.80
2022-09-23T00:51:05.109Z,14.23
2022-09-23T00:54:07.423Z,13.60
2022-09-23T00:57:11.187Z,14.00
2022-09-23T01:00:15.924Z,14.07
2022-09-23T01:03:19.691Z,16.95
2022-09-23T01:06:21.560Z,17.63
2022-09-23T01:09:24.344Z,19.00
2022-09-23T01:12:59.561Z,16.20
2022-09-23T01:16:13.528Z,14.48
2022-09-23T01:19:30.369Z,16.10
2022-09-23T01:22:54.249Z,17.35
2022-09-23T01:26:03.941Z,18.33
2022-09-23T01:29:17.865Z,18.60
2022-09-23T01:32:46.941Z,16.65
2022-09-23T01:35:51.512Z,15.32
2022-09-23T01:39:15.327Z,16.60
2022-09-23T01:42:35.273Z,15.55
2022-09-23T01:45:47.408Z,16.27
2022-09-23T01:48:57.727Z,15.43
2022-09-23T01:52:07.606Z,14.83
2022-09-23T01:55:24.960Z,16.05
2022-09-23T01:58:34.609Z,14.20
2022-09-23T02:02:01.599Z,14.60
2022-09-23T02:05:09.694Z,16.23
2022-09-23T02:08:18.138Z,14.88
2022-09-23T02:11:20.069Z,14.40
2022-09-23T02:14:29.044Z,15.35
2022-09-23T02:17:37.158Z,15.15
2022-09-23T02:20:42.149Z,16.60
2022-09-23T02:23:48.421Z,15.63
2022-09-23T02:26:54.607Z,15.13
2022-09-23T02:30:08.930Z,13.35
2022-09-23T02:33:37.620Z,12.87
2022-09-23T02:37:07.520Z,13.35
2022-09-23T02:40:15.823Z,13.40
2022-09-23T02:43:21.242Z,13.30
2022-09-23T02:46:23.341Z,12.85
2022-09-23T02:49:29.334Z,12.30
2022-09-23T02:52:30.957Z,14.07
2022-09-23T02:55:32.633Z,13.67
2022-09-23T02:58:34.596Z,13.73
2022-09-23T03:01:48.266Z,14.07
2022-09-23T03:05:05.223Z,14.40
2022-09-23T03:08:29.242Z,14.40
2022-09-23T03:11:32.373Z,13.35
2022-09-23T03:14:53.965Z,14.48
2022-09-23T03:18:15.623Z,14.00
2022-09-23T03:21:26.964Z,14.80
2022-09-23T03:24:32.177Z,13.45
2022-09-23T03:27:36.564Z,11.73
2022-09-23T03:30:40.213Z,14.05
2022-09-23T03:33:47.073Z,12.30
2022-09-23T03:37:18.987Z,12.73
2022-09-23T03:40:35.300Z,13.35
2022-09-23T03:43:38.962Z,13.02
2022-09-23T03:46:49.591Z,11.90
2022-09-23T03:49:52.116Z,13.63
2022-09-23T03:52:54.096Z,11.68
2022-09-23T03:55:55.655Z,12.23
2022-09-23T03:58:57.288Z,13.50
2022-09-23T04:02:00.041Z,12.60
2022-09-23T04:05:01.763Z,13.48
2022-09-23T04:08:03.569Z,13.07
2022-09-23T04:11:05.463Z,13.68
2022-09-23T04:14:07.228Z,12.73
2022-09-23T04:17:09.410Z,12.48
2022-09-23T04:20:11.110Z,15.35
2022-09-23T04:23:12.758Z,13.35
2022-09-23T04:26:15.213Z,13.77
2022-09-23T04:29:16.921Z,16.07
2022-09-23T04:32:18.510Z,13.75
2022-09-23T04:35:20.174Z,13.55
2022-09-23T04:38:22.136Z,14.00
2022-09-23T04:41:23.930Z,14.70
2022-09-23T04:44:27.703Z,15.73
2022-09-23T04:47:31.994Z,14.75
2022-09-23T04:50:33.956Z,16.15
2022-09-23T04:53:37.132Z,16.27
2022-09-23T04:56:39.819Z,17.25
2022-09-23T04:59:41.544Z,16.43
2022-09-23T05:02:45.304Z,17.20
2022-09-23T05:05:46.892Z,15.32
2022-09-23T05:08:51.256Z,16.83
2022-09-23T05:11:52.957Z,16.70
2022-09-23T05:14:54.631Z,15.27
2022-09-23T05:17:59.723Z,15.13
2022-09-23T05:21:03.848Z,16.35
2022-09-23T05:24:05.610Z,14.40
2022-09-23T05:27:07.840Z,15.82
2022-09-23T05:30:10.550Z,15.63
2022-09-23T05:33:14.979Z,15.45
2022-09-23T05:36:20.576Z,15.82
2022-09-23T05:39:22.256Z,14.97
2022-09-23T05:42:24.116Z,19.38
2022-09-23T05:45:26.971Z,16.70
2022-09-23T05:48:33.648Z,15.80
2022-09-23T05:51:35.997Z,16.35
2022-09-23T05:54:37.945Z,18.88
2022-09-23T05:57:39.735Z,18.85
2022-09-23T06:00:43.425Z,17.10
2022-09-23T06:03:48.990Z,21.73
2022-09-23T06:06:50.618Z,18.50
2022-09-23T06:09:53.998Z,18.93
2022-09-23T06:12:55.734Z,21.23
2022-09-23T06:16:00.402Z,20.45
2022-09-23T06:19:06.706Z,19.70
2022-09-23T06:22:08.766Z,19.52
2022-09-23T06:25:11.321Z,22.35
2022-09-23T06:28:13.283Z,23.38
2022-09-23T06:31:16.888Z,19.63
2022-09-23T06:34:19.351Z,21.52
2022-09-23T06:37:21.382Z,21.73
2022-09-23T06:40:23.498Z,23.70
2022-09-23T06:43:26.410Z,22.13
2022-09-23T06:46:28.115Z,23.45
2022-09-23T06:49:30.032Z,23.73
2022-09-23T06:52:31.880Z,23.23
2022-09-23T06:55:33.773Z,25.25
2022-09-23T06:58:38.055Z,27.88
2022-09-23T07:01:39.890Z,23.40
2022-09-23T07:04:41.761Z,23.08
2022-09-23T07:07:44.746Z,28.20
2022-09-23T07:10:51.977Z,21.57
2022-09-23T07:13:53.877Z,21.85
2022-09-23T07:16:55.630Z,22.15
2022-09-23T07:19:58.554Z,22.13
2022-09-23T07:23:00.535Z,21.38
2022-09-23T07:26:04.028Z,21.27
2022-09-23T07:29:05.800Z,22.08
2022-09-23T07:32:13.811Z,19.83
2022-09-23T07:35:16.500Z,21.55
2022-09-23T07:38:18.317Z,19.40
2022-09-23T07:41:20.004Z,17.83
2022-09-23T07:44:21.984Z,20.77
2022-09-23T07:47:23.650Z,21.02
2022-09-23T07:50:25.326Z,18.20
2022-09-23T07:53:32.178Z,19.05
2022-09-23T07:56:35.172Z,15.90
2022-09-23T07:59:36.848Z,17.15
2022-09-23T08:02:38.688Z,18.00
2022-09-23T08:05:41.164Z,18.27
2022-09-23T08:08:43.814Z,15.38
2022-09-23T08:11:45.816Z,17.53
2022-09-23T08:14:47.486Z,15.85
2022-09-23T08:17:49.377Z,16.13
2022-09-23T08:20:51.432Z,14.80
2022-09-23T08:23:53.161Z,16.15
2022-09-23T08:26:54.909Z,14.90
2022-09-23T08:29:56.782Z,15.15
2022-09-23T08:32:58.928Z,15.67
2022-09-23T08:36:03.107Z,16.15
2022-09-23T08:39:08.032Z,12.20
2022-09-23T08:42:27.940Z,12.20
2022-09-23T08:45:29.754Z,13.48
2022-09-23T08:48:38.628Z,12.73
2022-09-23T08:51:46.376Z,12.05
2022-09-23T08:54:53.173Z,14.75
2022-09-23T08:58:24.638Z,12.68
2022-09-23T09:01:57.925Z,14.13
2022-09-23T09:05:03.693Z,13.77
2022-09-23T09:08:05.654Z,11.90
2022-09-23T09:11:07.932Z,13.95
2022-09-23T09:14:24.857Z,11.60
2022-09-23T09:17:36.908Z,12.93
2022-09-23T09:21:08.575Z,11.95
2022-09-23T09:24:31.614Z,12.50
2022-09-23T09:27:42.189Z,12.43
2022-09-23T09:30:48.395Z,12.25
2022-09-23T09:33:58.180Z,11.27
2022-09-23T09:37:11.539Z,11.50
2022-09-23T09:40:15.137Z,12.07
2022-09-23T09:43:23.256Z,11.15
2022-09-23T09:46:24.860Z,12.82
2022-09-23T09:49:42.632Z,11.47
2022-09-23T09:52:44.165Z,10.75
2022-09-23T09:55:48.365Z,11.70
2022-09-23T09:58:55.827Z,11.80
2022-09-23T10:02:20.481Z,13.00
2022-09-23T10:05:30.003Z,11.70
2022-09-23T10:08:35.247Z,11.57
2022-09-23T10:11:37.846Z,10.52
2022-09-23T10:14:39.492Z,13.27
2022-09-23T10:17:41.349Z,13.32
2022-09-23T10:20:43.113Z,11.70
2022-09-23T10:23:48.006Z,13.43
2022-09-23T10:27:04.422Z,10.57
2022-09-23T10:30:21.599Z,14.05
2022-09-23T10:33:27.913Z,12.80
2022-09-23T10:36:33.145Z,13.50
2022-09-23T10:39:53.389Z,12.50
2022-09-23T10:43:23.811Z,9.15
2022-09-23T10:46:39.087Z,9.88
2022-09-23T10:50:11.844Z,9.88
2022-09-23T10:53:43.665Z,9.40
2022-09-23T10:57:38.158Z,10.00
2022-09-23T11:00:55.188Z,10.60
2022-09-23T11:04:12.491Z,9.63
2022-09-23T11:07:49.658Z,9.18
2022-09-23T11:11:22.420Z,8.27
2022-09-23T11:14:51.634Z,9.90
2022-09-23T11:18:07.999Z,10.50
2022-09-23T11:21:24.920Z,9.68
2022-09-23T11:25:08.990Z,9.35
2022-09-23T11:28:44.694Z,10.32
2022-09-23T11:32:07.852Z,8.20
2022-09-23T11:35:24.375Z,7.95
2022-09-23T11:38:40.870Z,7.75
2022-09-23T11:41:44.189Z,8.57
2022-09-23T11:44:54.254Z,11.73
2022-09-23T11:48:01.140Z,11.27
2022-09-23T11:51:08.283Z,8.38
2022-09-23T11:54:20.902Z,7.85
2022-09-23T11:57:49.318Z,9.35
2022-09-23T12:01:02.380Z,8.70
2022-09-23T12:04:19.935Z,8.73
2022-09-23T12:07:28.734Z,8.73
2022-09-23T12:11:01.509Z,8.40
2022-09-23T12:14:21.581Z,7.63
2022-09-23T12:17:54.542Z,8.35
2022-09-23T12:21:49.689Z,10.20
2022-09-23T12:25:29.744Z,8.77
2022-09-23T12:28:41.767Z,10.63
2022-09-23T12:31:46.708Z,8.13
2022-09-23T12:34:52.022Z,9.30
2022-09-23T12:37:54.229Z,8.63
2022-09-23T12:40:58.626Z,9.43
2022-09-23T12:44:28.430Z,8.73
2022-09-23T12:47:37.059Z,10.35
2022-09-23T12:51:17.715Z,10.05
2022-09-23T12:54:24.816Z,9.93
2022-09-23T12:57:35.530Z,7.68
2022-09-23T13:00:37.205Z,9.98
2022-09-23T13:04:04.052Z,10.68
2022-09-23T13:07:08.407Z,12.43
2022-09-23T13:10:18.295Z,9.63
2022-09-23T13:13:29.723Z,9.02
2022-09-23T13:16:41.059Z,10.93
2022-09-23T13:19:45.195Z,8.88
2022-09-23T13:22:49.531Z,9.55
2022-09-23T13:25:54.086Z,10.27
2022-09-23T13:28:58.485Z,10.93
2022-09-23T13:32:01.762Z,10.32
2022-09-23T13:35:12.781Z,10.73
2022-09-23T13:38:26.162Z,10.52
2022-09-23T13:41:28.645Z,8.53
2022-09-23T13:44:30.501Z,8.70
2022-09-23T13:47:34.815Z,11.23
2022-09-23T13:50:40.902Z,7.72
2022-09-23T13:53:42.600Z,11.43
2022-09-23T13:56:49.030Z,8.00
2022-09-23T13:59:50.687Z,7.30
2022-09-23T14:02:55.922Z,9.60
2022-09-23T14:06:00.169Z,10.07
2022-09-23T14:09:02.747Z,10.35
2022-09-23T14:12:06.401Z,9.10
2022-09-23T14:15:14.774Z,10.27
2022-09-23T14:18:28.910Z,9.73
2022-09-23T14:21:40.558Z,8.00
2022-09-23T14:24:42.323Z,12.30
2022-09-23T14:27:45.008Z,9.47
2022-09-23T14:30:48.125Z,7.25
2022-09-23T14:33:49.834Z,8.63
2022-09-23T14:37:10.128Z,9.45
2022-09-23T14:40:14.998Z,10.38
2022-09-23T14:43:19.390Z,9.87
2022-09-23T14:46:24.601Z,9.50
2022-09-23T14:49:27.417Z,9.02
2022-09-23T14:52:29.100Z,8.43
2022-09-23T14:55:31.516Z,10.20
2022-09-23T14:58:52.396Z,9.63
2022-09-23T15:01:54.651Z,9.67
2022-09-23T15:05:27.588Z,9.40
2022-09-23T15:08:29.496Z,10.57
2022-09-23T15:11:31.287Z,9.60
2022-09-23T15:14:41.069Z,8.30
2022-09-23T15:17:43.778Z,8.80
2022-09-23T15:20:54.195Z,9.40
2022-09-23T15:23:57.386Z,10.23
2022-09-23T15:26:59.100Z,7.47
2022-09-23T15:30:17.099Z,8.50
2022-09-23T15:33:18.896Z,17.83
2022-09-23T15:36:25.964Z,10.40
2022-09-23T15:39:35.738Z,9.18
2022-09-23T15:42:38.460Z,11.70
2022-09-23T15:46:00.009Z,9.13
2022-09-23T15:49:12.795Z,10.33
2022-09-23T15:52:15.965Z,12.10
2022-09-23T15:55:21.869Z,11.85
2022-09-23T15:58:25.171Z,13.60
2022-09-23T16:01:31.681Z,14.47
2022-09-23T16:04:33.465Z,11.27
2022-09-23T16:07:36.420Z,11.15
2022-09-23T16:10:38.192Z,11.98
2022-09-23T16:13:39.961Z,10.23
2022-09-23T16:16:45.109Z,10.17
2022-09-23T16:19:46.850Z,19.13
2022-09-23T16:23:04.625Z,11.57
2022-09-23T16:26:30.306Z,12.18
2022-09-23T16:29:31.899Z,10.23
2022-09-23T16:32:33.498Z,13.27
2022-09-23T16:35:37.263Z,13.18
2022-09-23T16:38:38.929Z,10.02
2022-09-23T16:41:41.134Z,11.25
2022-09-23T16:44:42.787Z,9.93
2022-09-23T16:47:46.185Z,11.33
2022-09-23T16:50:47.806Z,9.52
2022-09-23T16:53:51.245Z,16.75
2022-09-23T16:56:55.142Z,16.38
2022-09-23T17:00:15.434Z,16.60
2022-09-23T17:03:55.800Z,18.17
2022-09-23T17:06:58.473Z,15.88
2022-09-23T17:10:00.308Z,16.45
2022-09-23T17:13:02.195Z,14.15
2022-09-23T17:16:06.645Z,12.55
2022-09-23T17:19:10.425Z,15.93
2022-09-23T17:22:12.351Z,12.73
2022-09-23T17:25:14.230Z,19.85
2022-09-23T17:28:16.074Z,20.20
2022-09-23T17:31:18.737Z,18.02
2022-09-23T17:34:20.530Z,19.00
2022-09-23T17:37:22.229Z,17.27
2022-09-23T17:40:26.131Z,16.05
2022-09-23T17:43:29.148Z,18.63
2022-09-23T17:46:32.060Z,16.02
2022-09-23T17:49:35.380Z,15.20
2022-09-23T17:52:37.279Z,18.27
2022-09-23T17:55:38.932Z,13.13
2022-09-23T17:58:41.620Z,14.15
2022-09-23T18:01:43.426Z,14.07
2022-09-23T18:04:45.383Z,15.10
2022-09-23T18:07:47.362Z,16.67
2022-09-23T18:10:49.165Z,15.07
2022-09-23T18:14:00.993Z,14.48
2022-09-23T18:17:02.752Z,15.48
2022-09-23T18:20:05.090Z,16.63
2022-09-23T18:23:07.019Z,15.02
2022-09-23T18:26:23.661Z,16.60
2022-09-23T18:29:26.018Z,16.13
2022-09-23T18:32:27.756Z,14.98
2022-09-23T18:35:30.692Z,22.93
2022-09-23T18:38:32.783Z,18.70
2022-09-23T18:41:35.423Z,19.27
2022-09-23T18:44:37.104Z,21.17
2022-09-23T18:47:57.349Z,22.37
2022-09-23T18:50:59.112Z,23.73
2022-09-23T18:54:02.377Z,24.70
2022-09-23T18:57:04.217Z,25.73
2022-09-23T19:00:06.794Z,24.40
2022-09-23T19:03:08.450Z,25.30
2022-09-23T19:06:11.285Z,22.88
2022-09-23T19:09:14.744Z,27.38
2022-09-23T19:12:16.421Z,20.03
2022-09-23T19:15:18.094Z,21.85
2022-09-23T19:18:20.957Z,20.05
2022-09-23T19:21:23.521Z,21.70
2022-09-23T19:24:25.202Z,20.92
2022-09-23T19:27:27.031Z,19.83
2022-09-23T19:30:28.689Z,20.42
2022-09-23T19:33:30.318Z,26.27
2022-09-23T19:36:37.831Z,20.75
2022-09-23T19:39:40.859Z,23.67
2022-09-23T19:42:43.218Z,21.58
2022-09-23T19:45:52.548Z,22.33
2022-09-23T19:48:54.325Z,23.63
2022-09-23T19:51:56.566Z,25.70
2022-09-23T19:54:58.451Z,24.27
2022-09-23T19:58:00.418Z,21.65
2022-09-23T20:01:07.452Z,24.00
2022-09-23T20:04:09.363Z,26.02
2022-09-23T20:07:11.234Z,20.42
2022-09-23T20:10:13.558Z,20.20
2022-09-23T20:13:17.117Z,23.17
2022-09-23T20:16:20.132Z,21.45
2022-09-23T20:19:21.911Z,20.17
2022-09-23T20:22:33.185Z,19.67
2022-09-23T20:25:55.142Z,20.03
2022-09-23T20:28:56.977Z,18.85
2022-09-23T20:31:59.289Z,25.90
2022-09-23T20:35:04.147Z,18.05
2022-09-23T20:38:08.080Z,20.67
2022-09-23T20:41:10.107Z,16.45
2022-09-23T20:44:12.607Z,17.80
2022-09-23T20:47:17.017Z,16.65
2022-09-23T20:50:19.463Z,17.43
2022-09-23T20:53:23.402Z,18.13
2022-09-23T20:56:25.701Z,19.90
2022-09-23T20:59:27.839Z,20.23
2022-09-23T21:02:29.750Z,23.73
2022-09-23T21:05:33.735Z,21.50
2022-09-23T21:08:36.855Z,21.23
2022-09-23T21:11:38.620Z,21.95
2022-09-23T21:14:40.742Z,21.73
2022-09-23T21:17:43.418Z,21.85
2022-09-23T21:20:54.171Z,22.90
2022-09-23T21:24:17.185Z,27.00
2022-09-23T21:27:20.093Z,25.97
2022-09-23T21:30:22.301Z,24.67
2022-09-23T21:33:23.990Z,24.60
2022-09-23T21:36:27.447Z,25.70
2022-09-23T21:39:29.177Z,25.67
2022-09-23T21:42:30.884Z,27.63
2022-09-23T21:45:32.685Z,27.40
2022-09-23T21:48:37.269Z,24.05
2022-09-23T21:51:41.357Z,26.43
2022-09-23T21:54:43.290Z,23.95
2022-09-23T21:57:46.175Z,26.45
2022-09-23T22:00:47.861Z,28.50
2022-09-23T22:03:52.380Z,29.10
2022-09-23T22:06:54.084Z,28.70
2022-09-23T22:09:55.727Z,24.95
2022-09-23T22:12:57.325Z,30.38
2022-09-23T22:16:06.181Z,27.40
2022-09-23T22:19:10.607Z,27.77
2022-09-23T22:22:14.427Z,28.30
2022-09-23T22:25:16.580Z,23.42
2022-09-23T22:28:36.831Z,24.17
2022-09-23T22:31:57.095Z,23.65
2022-09-23T22:34:59.250Z,24.10
2022-09-23T22:38:01.094Z,25.58
2022-09-23T22:41:02.945Z,24.53
2022-09-23T22:44:05.270Z,25.95
2022-09-23T22:47:08.119Z,27.55
2022-09-23T22:50:09.996Z,28.45
2022-09-23T22:53:12.298Z,25.55
2022-09-23T22:56:14.160Z,28.20
2022-09-23T22:59:15.822Z,33.83
2022-09-23T23:02:19.564Z,26.43
2022-09-23T23:05:21.225Z,25.30
2022-09-23T23:08:23.635Z,26.83
2022-09-23T23:11:25.361Z,25.45
2022-09-23T23:14:30.794Z,24.93
2022-09-23T23:17:33.115Z,24.05
2022-09-23T23:20:34.743Z,21.08
2022-09-23T23:23:38.701Z,22.38
2022-09-23T23:26:40.756Z,21.40
2022-09-23T23:29:42.406Z,20.95
2022-09-23T23:32:44.065Z,21.95
2022-09-23T23:35:51.342Z,21.00
2022-09-23T23:38:53.233Z,20.00
2022-09-23T23:41:56.229Z,21.65
2022-09-23T23:44:58.053Z,25.45
2022-09-23T23:47:59.675Z,20.08
2022-09-23T23:51:02.795Z,19.77
2022-09-23T23:54:04.774Z,21.77
2022-09-23T23:57:06.635Z,20.10
